createdAt,value
2022-09-19T00:01:54.388Z,13.20
2022-09-19T00:04:26.848Z,13.20
2022-09-19T00:06:55.168Z,13.20
2022-09-19T00:09:24.921Z,13.20
2022-09-19T00:11:52.919Z,13.20
2022-09-19T00:14:23.076Z,13.10
2022-09-19T00:16:54.454Z,13.10
2022-09-19T00:19:21.523Z,13.10
2022-09-19T00:21:49.651Z,13.00
2022-09-19T00:24:37.530Z,13.00
2022-09-19T00:27:06.768Z,13.00
2022-09-19T00:29:35.621Z,12.90
2022-09-19T00:32:03.711Z,12.90
2022-09-19T00:34:31.457Z,12.80
2022-09-19T00:36:58.627Z,12.80
2022-09-19T00:39:25.864Z,12.80
2022-09-19T00:41:53.182Z,12.80
2022-09-19T00:44:22.809Z,12.80
2022-09-19T00:47:12.168Z,12.80
2022-09-19T00:49:43.494Z,12.80
2022-09-19T00:52:22.028Z,12.70
2022-09-19T00:54:50.640Z,12.80
2022-09-19T00:57:18.811Z,12.80
2022-09-19T00:59:49.529Z,12.80
2022-09-19T01:02:23.583Z,12.80
2022-09-19T01:04:50.815Z,12.80
2022-09-19T01:07:38.869Z,12.90
2022-09-19T01:10:36.342Z,12.90
2022-09-19T01:13:39.150Z,13.00
2022-09-19T01:16:35.317Z,13.00
2022-09-19T01:19:43.758Z,13.00
2022-09-19T01:22:47.312Z,13.10
2022-09-19T01:25:32.416Z,13.20
2022-09-19T01:28:09.443Z,13.20
2022-09-19T01:31:18.780Z,13.30
2022-09-19T01:34:15.006Z,13.30
2022-09-19T01:37:01.230Z,13.30
2022-09-19T01:39:30.848Z,13.30
2022-09-19T01:42:00.901Z,13.30
2022-09-19T01:44:30.559Z,13.40
2022-09-19T01:47:05.368Z,13.40
2022-09-19T01:50:06.788Z,13.50
2022-09-19T01:52:51.998Z,13.60
2022-09-19T01:55:40.838Z,13.70
2022-09-19T01:58:36.903Z,13.70
2022-09-19T02:01:15.572Z,13.70
2022-09-19T02:03:48.370Z,13.70
2022-09-19T02:06:28.739Z,13.80
2022-09-19T02:09:05.098Z,13.80
2022-09-19T02:11:46.532Z,13.80
2022-09-19T02:14:19.698Z,13.70
2022-09-19T02:17:03.921Z,13.70
2022-09-19T02:19:34.999Z,13.60
2022-09-19T02:22:06.567Z,13.50
2022-09-19T02:24:36.912Z,13.50
2022-09-19T02:27:11.413Z,13.50
2022-09-19T02:29:47.326Z,13.50
2022-09-19T02:32:20.374Z,13.50
2022-09-19T02:34:51.070Z,13.50
2022-09-19T02:37:32.049Z,13.60
2022-09-19T02:40:06.068Z,13.70
2022-09-19T02:42:52.076Z,13.80
2022-09-19T02:45:33.704Z,13.70
2022-09-19T02:48:20.691Z,13.80
2022-09-19T02:50:53.854Z,13.80
2022-09-19T02:53:29.699Z,13.90
2022-09-19T02:56:02.436Z,13.90
2022-09-19T02:58:36.820Z,13.90
2022-09-19T03:01:10.190Z,14.00
2022-09-19T03:04:04.246Z,14.00
2022-09-19T03:06:58.953Z,14.00
2022-09-19T03:09:29.828Z,14.00
2022-09-19T03:12:19.606Z,14.00
2022-09-19T03:14:58.889Z,14.00
2022-09-19T03:17:33.059Z,14.00
2022-09-19T03:20:01.517Z,14.00
2022-09-19T03:22:40.479Z,14.00
2022-09-19T03:25:09.937Z,14.00
2022-09-19T03:27:40.770Z,14.00
2022-09-19T03:30:17.127Z,14.00
2022-09-19T03:32:46.362Z,14.00
2022-09-19T03:35:15.676Z,14.00
2022-09-19T03:37:45.183Z,14.00
2022-09-19T03:40:12.320Z,14.10
2022-09-19T03:42:40.569Z,14.00
2022-09-19T03:45:09.444Z,14.10
2022-09-19T03:47:38.572Z,14.10
2022-09-19T03:50:07.703Z,14.10
2022-09-19T03:52:48.417Z,14.10
2022-09-19T03:55:18.684Z,14.10
2022-09-19T03:57:47.169Z,14.10
2022-09-19T04:00:17.144Z,14.10
2022-09-19T04:02:45.042Z,14.10
2022-09-19T04:05:14.514Z,14.10
2022-09-19T04:07:42.297Z,14.10
2022-09-19T04:10:09.757Z,14.10
2022-09-19T04:12:39.543Z,14.00
2022-09-19T04:15:09.025Z,14.00
2022-09-19T04:17:39.907Z,14.00
2022-09-19T04:20:12.709Z,13.90
2022-09-19T04:23:00.304Z,13.80
2022-09-19T04:25:37.782Z,13.80
2022-09-19T04:28:12.847Z,13.70
2022-09-19T04:30:41.697Z,13.70
2022-09-19T04:33:11.179Z,13.60
2022-09-19T04:35:40.025Z,13.50
2022-09-19T04:38:12.268Z,13.50
2022-09-19T04:40:43.738Z,13.40
2022-09-19T04:43:15.683Z,13.40
2022-09-19T04:45:49.651Z,13.30
2022-09-19T04:48:25.699Z,13.30
2022-09-19T04:50:54.440Z,13.20
2022-09-19T04:53:25.099Z,13.10
2022-09-19T04:55:55.698Z,13.00
2022-09-19T04:58:23.787Z,13.00
2022-09-19T05:00:54.438Z,13.00
2022-09-19T05:03:31.017Z,12.90
2022-09-19T05:06:00.237Z,12.90
2022-09-19T05:08:31.809Z,12.90
2022-09-19T05:11:06.679Z,12.90
2022-09-19T05:13:35.746Z,12.80
2022-09-19T05:16:03.110Z,12.80
2022-09-19T05:18:36.468Z,12.70
2022-09-19T05:21:07.206Z,12.70
2022-09-19T05:23:37.394Z,12.70
2022-09-19T05:26:18.070Z,12.70
2022-09-19T05:28:50.017Z,12.60
2022-09-19T05:31:20.000Z,12.70
2022-09-19T05:33:57.355Z,12.70
2022-09-19T05:36:28.390Z,12.70
2022-09-19T05:39:14.137Z,12.80
2022-09-19T05:42:02.466Z,12.90
2022-09-19T05:44:33.092Z,13.00
2022-09-19T05:47:03.387Z,13.00
2022-09-19T05:49:32.044Z,13.10
2022-09-19T05:52:18.876Z,13.10
2022-09-19T05:54:45.738Z,13.20
2022-09-19T05:57:29.291Z,13.20
2022-09-19T05:59:57.620Z,13.30
2022-09-19T06:02:24.735Z,13.30
2022-09-19T06:04:57.326Z,13.50
2022-09-19T06:07:25.114Z,13.50
2022-09-19T06:09:54.140Z,13.50
2022-09-19T06:12:22.142Z,13.70
2022-09-19T06:14:50.926Z,13.70
2022-09-19T06:17:19.910Z,13.90
2022-09-19T06:19:56.595Z,13.90
2022-09-19T06:22:27.193Z,14.00
2022-09-19T06:24:56.472Z,14.10
2022-09-19T06:27:24.403Z,14.20
2022-09-19T06:29:51.731Z,14.20
2022-09-19T06:32:29.137Z,14.30
2022-09-19T06:35:08.026Z,14.40
2022-09-19T06:37:36.849Z,14.40
2022-09-19T06:40:06.406Z,14.40
2022-09-19T06:42:59.728Z,14.50
2022-09-19T06:45:41.678Z,14.50
2022-09-19T06:48:38.682Z,14.70
2022-09-19T06:51:24.311Z,14.70
2022-09-19T06:53:53.604Z,14.70
2022-09-19T06:56:21.826Z,14.70
2022-09-19T06:58:48.711Z,14.80
2022-09-19T07:01:16.630Z,14.90
2022-09-19T07:03:44.128Z,15.00
2022-09-19T07:06:14.872Z,15.00
2022-09-19T07:08:45.304Z,15.10
2022-09-19T07:11:12.310Z,15.10
2022-09-19T07:13:44.457Z,15.10
2022-09-19T07:16:12.272Z,15.20
2022-09-19T07:18:40.107Z,15.20
2022-09-19T07:21:26.677Z,15.20
2022-09-19T07:23:56.552Z,15.40
2022-09-19T07:26:45.282Z,15.60
2022-09-19T07:29:16.102Z,15.70
2022-09-19T07:31:44.171Z,15.80
2022-09-19T07:34:11.200Z,15.90
2022-09-19T07:36:47.171Z,15.90
2022-09-19T07:39:14.015Z,16.00
2022-09-19T07:42:04.681Z,16.10
2022-09-19T07:44:49.954Z,16.10
2022-09-19T07:47:36.264Z,16.10
2022-09-19T07:50:19.617Z,16.10
2022-09-19T07:53:14.729Z,16.10
2022-09-19T07:55:42.880Z,16.10
2022-09-19T07:58:12.525Z,16.10
2022-09-19T08:00:46.829Z,16.10
2022-09-19T08:03:29.337Z,16.10
2022-09-19T08:06:00.482Z,16.20
2022-09-19T08:08:27.748Z,16.20
2022-09-19T08:11:02.108Z,16.30
2022-09-19T08:13:30.478Z,16.30
2022-09-19T08:16:02.768Z,16.40
2022-09-19T08:18:31.508Z,16.50
2022-09-19T08:20:58.351Z,16.50
2022-09-19T08:23:25.839Z,16.60
2022-09-19T08:25:56.705Z,16.60
2022-09-19T08:28:25.140Z,16.60
2022-09-19T08:31:01.088Z,16.60
2022-09-19T08:33:31.965Z,16.70
2022-09-19T08:36:00.626Z,16.80
2022-09-19T08:38:31.502Z,16.90
2022-09-19T08:41:18.576Z,17.00
2022-09-19T08:43:52.891Z,17.20
2022-09-19T08:46:23.660Z,17.40
2022-09-19T08:49:09.598Z,17.50
2022-09-19T08:51:51.406Z,17.60
2022-09-19T08:54:31.863Z,17.60
2022-09-19T08:57:01.847Z,17.70
2022-09-19T08:59:36.325Z,17.80
2022-09-19T09:03:00.248Z,17.90
2022-09-19T09:05:46.459Z,17.90
2022-09-19T09:08:22.833Z,18.00
2022-09-19T09:11:14.550Z,18.10
2022-09-19T09:14:05.576Z,18.20
2022-09-19T09:16:48.590Z,18.20
2022-09-19T09:19:40.231Z,18.10
2022-09-19T09:22:31.534Z,18.10
2022-09-19T09:25:29.484Z,18.10
2022-09-19T09:28:20.503Z,18.20
2022-09-19T09:31:26.678Z,18.30
2022-09-19T09:34:15.921Z,18.20
2022-09-19T09:37:06.826Z,18.10
2022-09-19T09:40:00.527Z,18.10
2022-09-19T09:42:53.820Z,18.10
2022-09-19T09:45:37.471Z,18.10
2022-09-19T09:48:29.768Z,18.00
2022-09-19T09:51:19.447Z,18.00
2022-09-19T09:54:35.601Z,17.90
2022-09-19T09:57:53.914Z,17.90
2022-09-19T10:00:40.656Z,17.90
2022-09-19T10:03:36.209Z,18.00
2022-09-19T10:06:28.667Z,17.90
2022-09-19T10:09:30.108Z,17.90
2022-09-19T10:14:48.359Z,17.90
2022-09-19T10:17:47.235Z,18.10
2022-09-19T10:20:32.022Z,18.20
2022-09-19T10:23:00.089Z,18.40
2022-09-19T10:25:31.104Z,18.50
2022-09-19T10:28:17.678Z,18.70
2022-09-19T10:31:05.894Z,18.70
2022-09-19T10:33:41.168Z,18.80
2022-09-19T10:36:25.030Z,18.70
2022-09-19T10:38:59.629Z,18.70
2022-09-19T10:41:33.082Z,18.70
2022-09-19T10:44:10.599Z,18.70
2022-09-19T10:46:45.321Z,18.70
2022-09-19T10:49:48.890Z,18.80
2022-09-19T10:52:49.884Z,18.80
2022-09-19T10:55:21.553Z,18.90
2022-09-19T10:58:18.073Z,18.90
2022-09-19T11:01:02.499Z,19.00
2022-09-19T11:03:40.502Z,19.30
2022-09-19T11:06:16.286Z,19.50
2022-09-19T11:08:52.203Z,19.80
2022-09-19T11:11:52.803Z,20.00
2022-09-19T11:14:50.259Z,20.20
2022-09-19T11:17:56.593Z,20.30
2022-09-19T11:20:46.108Z,20.50
2022-09-19T11:23:53.582Z,20.60
2022-09-19T11:26:53.096Z,20.40
2022-09-19T11:29:36.580Z,20.40
2022-09-19T11:35:30.451Z,20.40
2022-09-19T11:41:29.769Z,20.60
2022-09-19T11:44:08.194Z,20.80
2022-09-19T11:47:15.548Z,20.90
2022-09-19T11:49:52.853Z,21.10
2022-09-19T11:52:51.883Z,21.10
2022-09-19T11:55:38.556Z,21.20
2022-09-19T11:58:16.403Z,21.10
2022-09-19T12:01:12.832Z,21.00
2022-09-19T12:03:57.763Z,21.10
2022-09-19T12:07:01.943Z,21.20
2022-09-19T12:09:47.177Z,21.20
2022-09-19T12:12:19.658Z,21.10
2022-09-19T12:15:25.706Z,21.10
2022-09-19T12:18:34.090Z,21.20
2022-09-19T12:21:04.336Z,21.30
2022-09-19T12:23:52.026Z,21.30
2022-09-19T12:26:29.990Z,21.40
2022-09-19T12:29:03.989Z,21.50
2022-09-19T12:31:36.271Z,21.50
2022-09-19T12:34:24.697Z,21.40
2022-09-19T12:36:59.610Z,21.30
2022-09-19T12:39:48.476Z,21.20
2022-09-19T12:42:33.659Z,21.20
2022-09-19T12:45:00.761Z,21.30
2022-09-19T12:47:57.292Z,21.30
2022-09-19T12:50:43.090Z,21.40
2022-09-19T12:53:37.756Z,21.40
2022-09-19T12:56:20.451Z,21.40
2022-09-19T12:59:13.838Z,21.40
2022-09-19T13:01:46.497Z,21.30
2022-09-19T13:04:30.145Z,21.30
2022-09-19T13:07:10.847Z,21.30
2022-09-19T13:10:06.116Z,21.40
2022-09-19T13:12:54.187Z,21.30
2022-09-19T13:15:53.235Z,21.20
2022-09-19T13:18:39.924Z,21.30
2022-09-19T13:21:36.551Z,21.20
2022-09-19T13:24:05.972Z,21.20
2022-09-19T13:26:38.421Z,21.20
2022-09-19T13:29:28.709Z,21.10
2022-09-19T13:31:57.419Z,21.10
2022-09-19T13:34:40.907Z,21.10
2022-09-19T13:37:34.122Z,21.00
2022-09-19T13:40:25.357Z,21.10
2022-09-19T13:42:59.872Z,21.10
2022-09-19T13:45:37.451Z,21.10
2022-09-19T13:48:34.571Z,21.10
2022-09-19T13:51:13.209Z,21.10
2022-09-19T13:53:45.404Z,21.10
2022-09-19T13:56:33.619Z,21.20
2022-09-19T13:59:40.577Z,21.20
2022-09-19T14:02:13.491Z,21.30
2022-09-19T14:04:55.788Z,21.30
2022-09-19T14:10:31.493Z,21.20
2022-09-19T14:12:59.624Z,21.10
2022-09-19T14:15:57.742Z,21.10
2022-09-19T14:18:44.345Z,21.20
2022-09-19T14:21:35.112Z,21.10
2022-09-19T14:24:23.861Z,21.10
2022-09-19T14:27:05.202Z,21.10
2022-09-19T14:30:01.383Z,20.90
2022-09-19T14:32:42.790Z,20.90
2022-09-19T14:35:35.191Z,20.80
2022-09-19T14:38:10.668Z,20.70
2022-09-19T14:40:42.030Z,20.60
2022-09-19T14:43:30.137Z,20.40
2022-09-19T14:46:07.314Z,20.30
2022-09-19T14:48:43.453Z,20.40
2022-09-19T14:51:19.791Z,20.40
2022-09-19T14:53:51.174Z,20.30
2022-09-19T14:56:20.436Z,20.20
2022-09-19T14:58:52.158Z,20.20
2022-09-19T15:01:36.547Z,20.30
2022-09-19T15:04:14.963Z,20.30
2022-09-19T15:06:53.058Z,20.40
2022-09-19T15:09:28.981Z,20.30
2022-09-19T15:11:58.380Z,20.30
2022-09-19T15:14:27.585Z,20.30
2022-09-19T15:17:14.150Z,20.40
2022-09-19T15:19:46.638Z,20.50
2022-09-19T15:22:52.524Z,20.50
2022-09-19T15:25:36.486Z,20.50
2022-09-19T15:28:22.794Z,20.50
2022-09-19T15:30:59.838Z,20.40
2022-09-19T15:33:29.236Z,20.40
2022-09-19T15:35:59.682Z,20.30
2022-09-19T15:38:36.986Z,20.20
2022-09-19T15:41:08.931Z,20.10
2022-09-19T15:43:49.864Z,20.00
2022-09-19T15:46:25.901Z,19.90
2022-09-19T15:49:05.521Z,19.90
2022-09-19T15:54:18.565Z,19.60
2022-09-19T15:56:49.812Z,19.50
2022-09-19T15:59:28.858Z,19.30
2022-09-19T16:02:05.552Z,19.30
2022-09-19T16:04:33.139Z,19.30
2022-09-19T16:07:18.914Z,19.20
2022-09-19T16:10:07.470Z,19.20
2022-09-19T16:12:42.129Z,19.20
2022-09-19T16:15:23.231Z,19.00
2022-09-19T16:17:55.958Z,18.90
2022-09-19T16:20:31.978Z,18.80
2022-09-19T16:23:04.095Z,18.60
2022-09-19T16:25:51.265Z,18.50
2022-09-19T16:28:20.101Z,18.50
2022-09-19T16:31:19.127Z,18.40
2022-09-19T16:33:53.607Z,18.20
2022-09-19T16:36:21.833Z,18.10
2022-09-19T16:39:44.626Z,18.00
2022-09-19T16:42:11.456Z,17.80
2022-09-19T16:45:00.059Z,17.70
2022-09-19T16:47:27.132Z,17.70
2022-09-19T16:49:54.699Z,17.70
2022-09-19T16:52:28.768Z,17.60
2022-09-19T16:54:59.858Z,17.60
2022-09-19T16:57:27.481Z,17.60
2022-09-19T16:59:55.886Z,17.60
2022-09-19T17:02:24.379Z,17.50
2022-09-19T17:04:52.705Z,17.50
2022-09-19T17:07:21.003Z,17.50
2022-09-19T17:09:52.367Z,17.40
2022-09-19T17:12:21.451Z,17.40
2022-09-19T17:14:49.556Z,17.40
2022-09-19T17:17:16.891Z,17.30
2022-09-19T17:19:45.302Z,17.30
2022-09-19T17:22:21.189Z,17.40
2022-09-19T17:24:48.794Z,17.40
2022-09-19T17:27:15.652Z,17.20
2022-09-19T17:29:42.642Z,17.10
2022-09-19T17:32:13.546Z,17.00
2022-09-19T17:34:40.622Z,17.00
2022-09-19T17:37:07.382Z,17.10
2022-09-19T17:39:43.217Z,16.80
2022-09-19T17:42:19.448Z,16.70
2022-09-19T17:47:33.592Z,16.60
2022-09-19T17:50:01.242Z,16.60
2022-09-19T17:52:28.360Z,16.50
2022-09-19T17:54:55.310Z,16.60
2022-09-19T17:57:22.197Z,16.50
2022-09-19T17:59:50.205Z,16.50
2022-09-19T18:02:35.946Z,16.50
2022-09-19T18:05:03.128Z,16.50
2022-09-19T18:07:33.997Z,16.50
2022-09-19T18:10:01.932Z,16.50
2022-09-19T18:12:28.978Z,16.50
2022-09-19T18:14:56.028Z,16.40
2022-09-19T18:17:25.423Z,16.40
2022-09-19T18:19:52.572Z,16.40
2022-09-19T18:22:19.517Z,16.40
2022-09-19T18:24:46.359Z,16.40
2022-09-19T18:27:15.135Z,16.40
2022-09-19T18:29:43.362Z,16.30
2022-09-19T18:32:10.721Z,16.30
2022-09-19T18:34:37.930Z,16.30
2022-09-19T18:37:04.730Z,16.30
2022-09-19T18:39:31.709Z,16.30
2022-09-19T18:41:58.659Z,16.30
2022-09-19T18:44:26.052Z,16.30
2022-09-19T18:46:53.009Z,16.30
2022-09-19T18:49:21.257Z,16.30
2022-09-19T18:51:48.459Z,16.20
2022-09-19T18:54:19.632Z,16.20
2022-09-19T18:56:48.454Z,16.20
2022-09-19T18:59:15.260Z,16.20
2022-09-19T19:01:43.032Z,16.30
2022-09-19T19:04:09.998Z,16.20
2022-09-19T19:06:37.079Z,16.20
2022-09-19T19:09:06.151Z,16.20
2022-09-19T19:11:39.972Z,16.20
2022-09-19T19:14:06.917Z,16.20
2022-09-19T19:16:34.440Z,16.20
2022-09-19T19:19:03.730Z,16.10
2022-09-19T19:21:37.342Z,16.00
2022-09-19T19:24:06.130Z,16.00
2022-09-19T19:26:35.092Z,16.00
2022-09-19T19:29:02.166Z,15.90
2022-09-19T19:31:32.254Z,15.90
2022-09-19T19:34:03.025Z,15.90
2022-09-19T19:36:30.105Z,15.80
2022-09-19T19:38:59.958Z,15.80
2022-09-19T19:41:29.139Z,15.70
2022-09-19T19:43:57.658Z,15.60
2022-09-19T19:46:27.151Z,15.60
2022-09-19T19:48:57.562Z,15.40
2022-09-19T19:51:26.829Z,15.40
2022-09-19T19:53:59.154Z,15.40
2022-09-19T19:56:31.013Z,15.30
2022-09-19T19:58:58.523Z,15.30
2022-09-19T20:01:33.070Z,15.30
2022-09-19T20:04:02.032Z,15.20
2022-09-19T20:06:40.414Z,15.10
2022-09-19T20:09:11.630Z,15.10
2022-09-19T20:11:39.981Z,15.00
2022-09-19T20:14:11.672Z,15.00
2022-09-19T20:16:40.834Z,14.90
2022-09-19T20:19:09.164Z,14.90
2022-09-19T20:21:42.097Z,14.80
2022-09-19T20:24:12.867Z,14.80
2022-09-19T20:26:40.302Z,14.80
2022-09-19T20:29:10.618Z,14.70
2022-09-19T20:31:37.847Z,14.70
2022-09-19T20:34:07.911Z,14.70
2022-09-19T20:36:40.104Z,14.60
2022-09-19T20:39:07.655Z,14.60
2022-09-19T20:41:37.405Z,14.50
2022-09-19T20:44:09.317Z,14.50
2022-09-19T20:46:36.922Z,14.50
2022-09-19T20:49:08.365Z,14.50
2022-09-19T20:51:38.638Z,14.40
2022-09-19T20:54:13.635Z,14.40
2022-09-19T20:56:40.674Z,14.40
2022-09-19T20:59:11.417Z,14.40
2022-09-19T21:01:38.599Z,14.30
2022-09-19T21:04:06.601Z,14.40
2022-09-19T21:06:34.236Z,14.30
2022-09-19T21:09:02.288Z,14.30
2022-09-19T21:11:29.542Z,14.40
2022-09-19T21:13:58.674Z,14.30
2022-09-19T21:16:30.750Z,14.30
2022-09-19T21:18:59.218Z,14.30
2022-09-19T21:21:28.588Z,14.30
2022-09-19T21:23:57.134Z,14.20
2022-09-19T21:26:28.245Z,14.20
2022-09-19T21:28:56.820Z,14.30
2022-09-19T21:31:25.780Z,14.20
2022-09-19T21:33:57.702Z,14.20
2022-09-19T21:36:26.250Z,14.20
2022-09-19T21:38:57.684Z,14.10
2022-09-19T21:41:26.428Z,14.10
2022-09-19T21:43:55.881Z,14.10
2022-09-19T21:46:24.829Z,14.10
2022-09-19T21:48:53.161Z,14.10
2022-09-19T21:51:31.494Z,14.00
2022-09-19T21:54:00.323Z,14.00
2022-09-19T21:56:28.934Z,13.90
2022-09-19T21:58:56.308Z,13.90
2022-09-19T22:01:28.927Z,13.90
2022-09-19T22:03:56.244Z,13.90
2022-09-19T22:06:24.547Z,13.80
2022-09-19T22:08:54.280Z,13.80
2022-09-19T22:11:28.685Z,13.80
2022-09-19T22:13:56.583Z,13.80
2022-09-19T22:16:23.613Z,13.80
2022-09-19T22:18:51.487Z,13.70
2022-09-19T22:21:24.222Z,13.80
2022-09-19T22:23:56.623Z,13.80
2022-09-19T22:26:26.263Z,13.80
2022-09-19T22:28:54.495Z,13.80
2022-09-19T22:31:24.373Z,13.80
2022-09-19T22:33:53.654Z,13.80
2022-09-19T22:36:27.584Z,13.70
2022-09-19T22:38:57.208Z,13.70
2022-09-19T22:41:26.785Z,13.70
2022-09-19T22:43:54.521Z,13.60
2022-09-19T22:46:24.084Z,13.60
2022-09-19T22:48:51.145Z,13.60
2022-09-19T22:51:22.656Z,13.60
2022-09-19T22:53:50.195Z,13.50
2022-09-19T22:56:24.907Z,13.60
2022-09-19T22:58:51.830Z,13.60
2022-09-19T23:01:21.625Z,13.60
2022-09-19T23:03:49.224Z,13.50
2022-09-19T23:06:18.229Z,13.60
2022-09-19T23:08:52.534Z,13.60
2022-09-19T23:11:20.715Z,13.60
2022-09-19T23:13:47.551Z,13.70
2022-09-19T23:16:15.267Z,13.70
2022-09-19T23:18:42.447Z,13.70
2022-09-19T23:21:09.850Z,13.70
2022-09-19T23:23:36.725Z,13.80
2022-09-19T23:26:06.887Z,13.80
2022-09-19T23:28:33.824Z,13.80
2022-09-19T23:31:05.591Z,13.90
2022-09-19T23:33:34.366Z,14.00
2022-09-19T23:36:03.653Z,14.00
2022-09-19T23:38:31.571Z,14.10
2022-09-19T23:41:03.487Z,14.10
2022-09-19T23:43:31.101Z,14.20
2022-09-19T23:45:58.704Z,14.10
2022-09-19T23:48:27.698Z,14.20
2022-09-19T23:50:55.291Z,14.10
2022-09-19T23:53:23.679Z,14.10
2022-09-19T23:55:50.828Z,14.10
2022-09-19T23:58:19.107Z,14.10
